createdAt,value
2019-05-15T00:01:42.862Z,5.35
2019-05-15T00:04:12.975Z,7.92
2019-05-15T00:06:42.883Z,6.53
2019-05-15T00:09:13.154Z,7.25
2019-05-15T00:11:42.935Z,6.67
2019-05-15T00:14:13.045Z,6.95
2019-05-15T00:16:42.981Z,9.13
2019-05-15T00:19:13.831Z,5.37
2019-05-15T00:21:43.121Z,6.42
2019-05-15T00:24:13.425Z,7.75
2019-05-15T00:26:43.135Z,7.28
2019-05-15T00:29:16.322Z,8.25
2019-05-15T00:31:44.154Z,6.90
2019-05-15T00:34:13.471Z,5.10
2019-05-15T00:36:43.735Z,9.17
2019-05-15T00:39:13.174Z,6.50
2019-05-15T00:41:51.470Z,6.58
2019-05-15T00:44:14.187Z,7.62
2019-05-15T00:46:43.502Z,7.45
2019-05-15T00:49:13.257Z,6.28
2019-05-15T00:51:43.282Z,7.70
2019-05-15T00:54:13.341Z,8.40
2019-05-15T00:56:43.319Z,7.03
2019-05-15T00:59:25.825Z,5.87
2019-05-15T01:01:44.412Z,6.30
2019-05-15T01:04:13.786Z,8.53
2019-05-15T01:06:43.528Z,8.70
2019-05-15T01:09:13.489Z,9.55
2019-05-15T01:11:43.529Z,9.05
2019-05-15T01:14:13.546Z,7.42
2019-05-15T01:16:43.554Z,7.33
2019-05-15T01:19:15.095Z,7.40
2019-05-15T01:21:44.396Z,6.70
2019-05-15T01:24:13.728Z,9.28
2019-05-15T01:26:43.651Z,7.40
2019-05-15T01:29:14.604Z,8.55
2019-05-15T01:31:43.918Z,7.03
2019-05-15T01:34:13.723Z,8.25
2019-05-15T01:36:43.630Z,6.62
2019-05-15T01:39:13.651Z,8.90
2019-05-15T01:41:43.971Z,8.60
2019-05-15T01:44:13.696Z,12.05
2019-05-15T01:46:43.760Z,11.65
2019-05-15T01:49:13.780Z,8.15
2019-05-15T01:51:43.863Z,9.40
2019-05-15T01:54:13.782Z,11.45
2019-05-15T01:56:43.807Z,9.03
2019-05-15T01:59:13.843Z,8.40
2019-05-15T02:01:43.908Z,8.38
2019-05-15T02:04:14.260Z,8.07
2019-05-15T02:06:43.876Z,8.23
2019-05-15T02:09:13.904Z,11.25
2019-05-15T02:11:43.990Z,11.50
2019-05-15T02:14:13.962Z,13.65
2019-05-15T02:16:43.949Z,7.85
2019-05-15T02:19:13.977Z,8.70
2019-05-15T02:21:44.051Z,12.00
2019-05-15T02:24:13.994Z,14.80
2019-05-15T02:26:44.036Z,12.60
2019-05-15T02:29:17.182Z,12.60
2019-05-15T02:31:45.089Z,9.28
2019-05-15T02:34:14.403Z,11.97
2019-05-15T02:36:44.038Z,8.00
2019-05-15T02:39:15.041Z,9.08
2019-05-15T02:41:44.354Z,12.17
2019-05-15T02:44:14.327Z,11.05
2019-05-15T02:46:44.328Z,9.58
2019-05-15T02:49:14.347Z,10.08
2019-05-15T02:51:44.498Z,8.48
2019-05-15T02:54:14.593Z,10.40
2019-05-15T02:56:44.816Z,12.65
2019-05-15T02:59:15.039Z,9.10
2019-05-15T03:01:45.046Z,13.95
2019-05-15T03:04:15.163Z,10.68
2019-05-15T03:06:45.285Z,12.33
2019-05-15T03:09:18.515Z,11.97
2019-05-15T03:11:49.435Z,9.20
2019-05-15T03:14:21.163Z,14.35
2019-05-15T03:16:49.746Z,9.48
2019-05-15T03:21:49.622Z,11.65
2019-05-15T03:24:19.784Z,13.65
2019-05-15T03:26:50.093Z,11.95
2019-05-15T03:29:21.113Z,10.60
2019-05-15T03:32:07.735Z,18.47
2019-05-15T03:34:28.881Z,9.10
2019-05-15T03:36:53.580Z,11.38
2019-05-15T03:39:23.362Z,10.88
2019-05-15T03:41:52.642Z,14.87
2019-05-15T03:44:21.959Z,8.98
2019-05-15T03:46:51.262Z,10.20
2019-05-15T03:49:20.572Z,12.30
2019-05-15T03:51:50.295Z,8.58
2019-05-15T03:54:20.703Z,11.85
2019-05-15T03:56:50.302Z,7.28
2019-05-15T03:59:19.642Z,11.20
2019-05-15T04:01:49.786Z,11.15
2019-05-15T04:04:19.219Z,11.43
2019-05-15T04:06:49.848Z,10.63
2019-05-15T04:09:19.615Z,10.53
2019-05-15T04:11:49.860Z,10.70
2019-05-15T04:14:19.574Z,12.10
2019-05-15T04:16:49.862Z,12.68
2019-05-15T04:19:19.639Z,8.85
2019-05-15T04:21:49.858Z,13.22
2019-05-15T04:24:20.273Z,11.73
2019-05-15T04:26:51.126Z,9.10
2019-05-15T04:29:20.468Z,8.20
2019-05-15T04:32:00.714Z,9.75
2019-05-15T04:34:21.568Z,10.23
2019-05-15T04:36:50.865Z,11.65
2019-05-15T04:39:20.902Z,11.00
2019-05-15T04:41:51.186Z,10.55
2019-05-15T04:44:21.502Z,10.43
2019-05-15T04:46:51.489Z,14.68
2019-05-15T04:49:21.551Z,11.05
2019-05-15T04:51:51.742Z,10.75
2019-05-15T04:54:21.874Z,12.53
2019-05-15T04:56:52.074Z,12.82
2019-05-15T04:59:22.301Z,15.45
2019-05-15T05:02:13.059Z,12.40
2019-05-15T05:04:23.414Z,13.80
2019-05-15T05:06:52.804Z,9.93
2019-05-15T05:09:22.849Z,9.65
2019-05-15T05:11:52.896Z,8.28
2019-05-15T05:14:23.189Z,9.05
2019-05-15T05:16:53.231Z,11.84
2019-05-15T05:19:23.381Z,12.55
2019-05-15T05:21:53.603Z,8.85
2019-05-15T05:24:23.639Z,10.70
2019-05-15T05:26:53.893Z,9.73
2019-05-15T05:29:23.937Z,10.80
2019-05-15T05:31:54.333Z,12.15
2019-05-15T05:34:24.283Z,10.68
2019-05-15T05:36:54.618Z,8.43
2019-05-15T05:39:24.474Z,9.93
2019-05-15T05:41:54.686Z,7.37
2019-05-15T05:44:25.282Z,8.20
2019-05-15T05:46:55.117Z,12.37
2019-05-15T05:49:25.163Z,7.42
2019-05-15T05:51:55.437Z,11.10
2019-05-15T05:54:25.671Z,9.73
2019-05-15T05:56:55.769Z,11.20
2019-05-15T05:59:28.258Z,15.13
2019-05-15T06:01:58.998Z,8.25
2019-05-15T06:04:28.034Z,7.78
2019-05-15T06:07:09.199Z,7.40
2019-05-15T06:09:32.061Z,7.28
2019-05-15T06:12:01.391Z,8.75
2019-05-15T06:14:30.722Z,7.12
2019-05-15T06:17:00.060Z,8.75
2019-05-15T06:19:31.343Z,6.08
2019-05-15T06:22:01.148Z,6.67
2019-05-15T06:24:30.753Z,6.37
2019-05-15T06:27:00.131Z,7.45
2019-05-15T06:29:29.439Z,6.65
2019-05-15T06:31:58.846Z,5.83
2019-05-15T06:34:28.599Z,5.58
2019-05-15T06:36:58.880Z,5.28
2019-05-15T06:39:28.496Z,7.35
2019-05-15T06:41:58.907Z,8.73
2019-05-15T06:44:28.664Z,3.92
2019-05-15T06:46:58.884Z,7.08
2019-05-15T06:49:37.685Z,5.40
2019-05-15T06:52:11.735Z,5.20
2019-05-15T06:54:41.023Z,4.10
2019-05-15T06:57:10.317Z,5.92
2019-05-15T06:59:40.373Z,5.75
2019-05-15T07:02:09.678Z,4.45
2019-05-15T07:04:39.190Z,5.83
2019-05-15T07:07:11.137Z,4.12
2019-05-15T07:12:09.634Z,5.00
2019-05-15T07:14:39.048Z,4.12
2019-05-15T07:17:09.195Z,4.63
2019-05-15T07:19:39.320Z,3.10
2019-05-15T07:22:09.415Z,6.53
2019-05-15T07:24:38.992Z,3.90
2019-05-15T07:27:08.313Z,3.10
2019-05-15T07:29:38.724Z,3.00
2019-05-15T07:32:08.188Z,3.77
2019-05-15T07:34:37.988Z,7.80
2019-05-15T07:37:09.645Z,4.58
2019-05-15T07:39:38.391Z,2.70
2019-05-15T07:42:08.575Z,3.58
2019-05-15T07:44:39.014Z,3.90
2019-05-15T07:47:08.889Z,4.00
2019-05-15T07:49:38.991Z,3.10
2019-05-15T07:52:08.694Z,3.27
2019-05-15T07:54:38.410Z,1.80
2019-05-15T07:57:08.981Z,2.67
2019-05-15T07:59:38.825Z,2.10
2019-05-15T08:02:08.490Z,4.47
2019-05-15T08:04:38.094Z,6.08
2019-05-15T08:07:09.169Z,7.00
2019-05-15T08:09:39.116Z,6.03
2019-05-15T08:12:08.522Z,3.05
2019-05-15T08:14:38.787Z,2.42
2019-05-15T08:17:08.747Z,4.40
2019-05-15T08:19:38.475Z,4.42
2019-05-15T08:22:09.017Z,3.17
2019-05-15T08:24:39.117Z,1.37
2019-05-15T08:27:09.014Z,6.37
2019-05-15T08:29:38.446Z,1.85
2019-05-15T08:32:08.455Z,2.83
2019-05-15T08:34:38.688Z,2.65
2019-05-15T08:37:08.114Z,3.37
2019-05-15T08:39:38.175Z,2.52
2019-05-15T08:42:08.035Z,2.83
2019-05-15T08:44:38.649Z,2.45
2019-05-15T08:47:08.311Z,2.52
2019-05-15T08:49:40.921Z,2.65
2019-05-15T08:52:10.135Z,4.03
2019-05-15T08:54:39.806Z,4.45
2019-05-15T08:57:09.141Z,2.33
2019-05-15T08:59:38.469Z,2.10
2019-05-15T09:02:07.934Z,2.35
2019-05-15T09:04:38.644Z,2.17
2019-05-15T09:07:09.254Z,3.60
2019-05-15T09:09:38.762Z,2.43
2019-05-15T09:12:08.413Z,2.75
2019-05-15T09:14:38.128Z,5.45
2019-05-15T09:17:08.675Z,2.22
2019-05-15T09:19:38.788Z,3.12
2019-05-15T09:22:09.163Z,2.42
2019-05-15T09:24:38.634Z,1.60
2019-05-15T09:27:10.039Z,2.67
2019-05-15T09:29:39.734Z,2.52
2019-05-15T09:32:12.364Z,3.37
2019-05-15T09:34:50.115Z,1.85
2019-05-15T09:37:11.098Z,1.32
2019-05-15T09:39:40.388Z,2.70
2019-05-15T09:42:09.717Z,1.98
2019-05-15T09:44:39.591Z,2.27
2019-05-15T09:47:09.850Z,4.30
2019-05-15T09:49:40.244Z,3.30
2019-05-15T09:52:10.142Z,1.87
2019-05-15T09:54:40.269Z,2.02
2019-05-15T09:57:11.185Z,6.40
2019-05-15T09:59:40.699Z,4.50
2019-05-15T10:02:10.770Z,4.80
2019-05-15T10:04:40.840Z,3.60
2019-05-15T10:07:11.047Z,6.50
2019-05-15T10:09:41.257Z,4.13
2019-05-15T10:12:11.303Z,3.47
2019-05-15T10:14:41.776Z,6.60
2019-05-15T10:17:11.595Z,9.63
2019-05-15T10:19:41.809Z,4.87
2019-05-15T10:22:12.000Z,3.98
2019-05-15T10:24:42.267Z,2.08
2019-05-15T10:27:12.359Z,4.17
2019-05-15T10:29:42.560Z,2.42
2019-05-15T10:32:12.644Z,2.65
2019-05-15T10:34:42.867Z,1.87
2019-05-15T10:37:13.016Z,2.33
2019-05-15T10:39:43.109Z,6.62
2019-05-15T10:42:13.313Z,6.10
2019-05-15T10:44:43.410Z,3.95
2019-05-15T10:47:13.630Z,2.12
2019-05-15T10:49:43.729Z,3.90
2019-05-15T10:52:13.879Z,3.72
2019-05-15T10:54:43.978Z,10.03
2019-05-15T10:57:14.187Z,3.67
2019-05-15T10:59:44.279Z,5.78
2019-05-15T11:02:15.246Z,4.90
2019-05-15T11:04:45.150Z,3.35
2019-05-15T11:07:14.797Z,3.55
2019-05-15T11:09:45.031Z,2.20
2019-05-15T11:12:15.205Z,3.80
2019-05-15T11:14:45.249Z,6.25
2019-05-15T11:17:15.590Z,5.62
2019-05-15T11:19:49.522Z,4.87
2019-05-15T11:22:18.832Z,5.40
2019-05-15T11:24:50.806Z,3.45
2019-05-15T11:27:19.125Z,3.45
2019-05-15T11:29:48.543Z,3.58
2019-05-15T11:32:17.910Z,4.78
2019-05-15T11:34:49.279Z,2.30
2019-05-15T11:37:18.926Z,5.55
2019-05-15T11:39:48.486Z,3.47
2019-05-15T11:42:20.107Z,2.87
2019-05-15T11:44:48.833Z,2.50
2019-05-15T11:47:18.488Z,1.83
2019-05-15T11:49:47.966Z,2.83
2019-05-15T11:52:18.834Z,3.35
2019-05-15T11:54:49.334Z,2.52
2019-05-15T11:57:19.117Z,4.47
2019-05-15T11:59:55.078Z,3.77
2019-05-15T12:02:19.548Z,2.58
2019-05-15T12:04:48.838Z,3.98
2019-05-15T12:07:18.522Z,2.02
2019-05-15T12:09:48.879Z,4.50
2019-05-15T12:12:18.656Z,2.35
2019-05-15T12:14:49.675Z,3.05
2019-05-15T12:17:19.103Z,4.00
2019-05-15T12:19:54.867Z,3.60
2019-05-15T12:22:20.193Z,3.58
2019-05-15T12:24:50.176Z,6.37
2019-05-15T12:27:19.735Z,2.10
2019-05-15T12:29:49.683Z,3.60
2019-05-15T12:34:51.648Z,5.95
2019-05-15T12:37:21.623Z,3.43
2019-05-15T13:00:19.028Z,5.62
2019-05-15T13:02:49.587Z,2.58
2019-05-15T13:05:19.323Z,4.10
2019-05-15T13:07:49.418Z,2.40
2019-05-15T13:10:18.888Z,10.10
2019-05-15T13:12:59.541Z,4.95
2019-05-15T13:15:20.643Z,5.65
2019-05-15T13:17:52.850Z,3.27
2019-05-15T13:20:22.401Z,2.27
2019-05-15T13:22:52.548Z,2.55
2019-05-15T13:25:23.436Z,2.62
2019-05-15T13:27:53.408Z,2.60
2019-05-15T13:30:25.542Z,2.87
2019-05-15T13:33:00.365Z,6.45
2019-05-15T13:35:30.712Z,4.53
2019-05-15T13:38:02.197Z,2.33
2019-05-15T13:40:38.085Z,4.97
2019-05-15T13:43:08.333Z,3.30
2019-05-15T13:45:38.811Z,5.75
2019-05-15T13:48:09.250Z,6.63
2019-05-15T13:50:40.378Z,3.75
2019-05-15T13:53:11.106Z,1.87
2019-05-15T13:55:42.751Z,2.35
2019-05-15T14:00:40.102Z,2.90
2019-05-15T14:03:09.531Z,4.20
2019-05-15T14:05:39.797Z,6.33
2019-05-15T14:08:09.099Z,3.77
2019-05-15T14:10:38.809Z,5.35
2019-05-15T14:13:08.177Z,2.93
2019-05-15T14:15:38.235Z,4.15
2019-05-15T14:18:08.619Z,2.80
2019-05-15T14:20:38.759Z,1.70
2019-05-15T14:23:08.884Z,2.70
2019-05-15T14:25:38.794Z,2.65
2019-05-15T14:28:09.040Z,7.27
2019-05-15T14:30:38.487Z,2.57
2019-05-15T14:33:08.457Z,1.90
2019-05-15T14:35:38.140Z,5.73
2019-05-15T14:38:10.194Z,2.72
2019-05-15T14:40:38.518Z,2.08
2019-05-15T14:43:08.916Z,4.85
2019-05-15T14:45:38.958Z,8.65
2019-05-15T14:48:09.315Z,1.57
2019-05-15T14:50:39.001Z,2.95
2019-05-15T14:53:09.529Z,3.83
2019-05-15T14:55:43.895Z,1.92
2019-05-15T14:58:10.911Z,3.10
2019-05-15T15:00:41.518Z,3.62
2019-05-15T15:03:11.249Z,3.27
2019-05-15T15:05:41.505Z,3.07
2019-05-15T15:08:21.771Z,4.10
2019-05-15T15:10:41.794Z,3.35
2019-05-15T15:13:11.138Z,2.33
2019-05-15T15:15:42.269Z,4.25
2019-05-15T15:18:11.470Z,5.60
2019-05-15T15:20:40.769Z,3.27
2019-05-15T15:23:10.155Z,3.22
2019-05-15T15:25:39.903Z,7.45
2019-05-15T15:28:09.416Z,4.33
2019-05-15T15:30:38.816Z,6.35
2019-05-15T15:33:08.701Z,3.98
2019-05-15T15:35:38.398Z,8.88
2019-05-15T15:38:13.341Z,2.90
2019-05-15T15:43:09.876Z,4.10
2019-05-15T15:45:39.703Z,2.72
2019-05-15T15:48:09.025Z,2.30
2019-05-15T15:50:38.602Z,2.67
2019-05-15T15:53:08.886Z,3.60
2019-05-15T15:55:38.892Z,4.70
2019-05-15T15:58:10.306Z,3.35
2019-05-15T16:00:39.316Z,3.92
2019-05-15T16:03:08.672Z,5.12
2019-05-15T16:05:38.576Z,4.67
2019-05-15T16:08:09.029Z,5.05
2019-05-15T16:10:38.441Z,7.00
2019-05-15T16:13:09.349Z,3.85
2019-05-15T16:15:38.783Z,2.90
2019-05-15T16:18:08.983Z,4.22
2019-05-15T16:20:39.537Z,4.57
2019-05-15T16:23:09.537Z,2.47
2019-05-15T16:25:38.843Z,2.67
2019-05-15T16:28:08.835Z,4.83
2019-05-15T16:30:50.349Z,3.77
2019-05-15T16:33:09.909Z,5.25
2019-05-15T16:35:39.407Z,4.42
2019-05-15T16:38:09.497Z,5.17
2019-05-15T16:40:38.927Z,4.37
2019-05-15T16:43:08.257Z,3.67
2019-05-15T16:45:38.830Z,5.40
2019-05-15T16:48:09.423Z,3.80
2019-05-15T16:50:39.869Z,5.45
2019-05-15T16:53:09.390Z,6.53
2019-05-15T16:55:38.679Z,3.65
2019-05-15T16:58:09.314Z,6.72
2019-05-15T17:00:38.746Z,4.62
2019-05-15T17:03:14.324Z,2.80
2019-05-15T17:05:39.140Z,2.25
2019-05-15T17:08:09.060Z,3.83
2019-05-15T17:10:39.628Z,3.17
2019-05-15T17:13:08.966Z,5.97
2019-05-15T17:15:38.581Z,4.55
2019-05-15T17:18:08.905Z,3.20
2019-05-15T17:20:38.415Z,6.22
2019-05-15T17:23:08.673Z,3.95
2019-05-15T17:25:39.099Z,2.25
2019-05-15T17:28:09.097Z,2.35
2019-05-15T17:30:38.678Z,4.73
2019-05-15T17:33:08.279Z,4.12
2019-05-15T17:35:38.534Z,3.90
2019-05-15T17:38:08.651Z,5.67
2019-05-15T17:40:38.759Z,3.90
2019-05-15T17:43:09.493Z,5.35
2019-05-15T17:45:39.145Z,3.35
2019-05-15T17:48:11.859Z,5.57
2019-05-15T17:50:48.544Z,3.33
2019-05-15T17:53:14.437Z,1.90
2019-05-15T17:55:43.761Z,2.92
2019-05-15T17:58:13.264Z,4.42
2019-05-15T18:00:42.625Z,1.98
2019-05-15T18:03:13.330Z,2.80
2019-05-15T18:05:42.718Z,2.70
2019-05-15T18:08:12.023Z,2.80
2019-05-15T18:10:41.320Z,4.53
2019-05-15T18:13:10.695Z,5.47
2019-05-15T18:15:40.886Z,3.45
2019-05-15T18:18:11.135Z,2.63
2019-05-15T18:20:41.224Z,3.52
2019-05-15T18:23:11.461Z,3.35
2019-05-15T18:25:42.215Z,2.08
2019-05-15T18:28:11.631Z,7.62
2019-05-15T18:30:41.955Z,2.50
2019-05-15T18:33:12.032Z,2.47
2019-05-15T18:35:42.281Z,1.92
2019-05-15T18:38:12.218Z,3.87
2019-05-15T18:40:42.493Z,2.50
2019-05-15T18:43:12.763Z,3.90
2019-05-15T18:45:42.725Z,3.42
2019-05-15T18:48:12.915Z,1.75
2019-05-15T18:50:42.986Z,4.05
2019-05-15T18:53:13.224Z,2.72
2019-05-15T18:55:43.304Z,5.62
2019-05-15T18:58:13.418Z,2.80
2019-05-15T19:00:43.811Z,4.58
2019-05-15T19:03:19.417Z,2.90
2019-05-15T19:05:44.806Z,3.83
2019-05-15T19:08:14.107Z,2.27
2019-05-15T19:10:44.255Z,2.55
2019-05-15T19:13:14.370Z,2.25
2019-05-15T19:15:44.545Z,2.80
2019-05-15T19:18:14.770Z,4.17
2019-05-15T19:20:44.895Z,3.47
2019-05-15T19:23:15.210Z,3.47
2019-05-15T19:25:45.203Z,3.17
2019-05-15T19:28:15.569Z,1.97
2019-05-15T19:30:47.749Z,3.98
2019-05-15T19:33:18.594Z,3.87
2019-05-15T19:35:47.749Z,6.28
2019-05-15T19:38:18.553Z,3.37
2019-05-15T19:40:48.135Z,4.78
2019-05-15T19:43:18.167Z,6.17
2019-05-15T19:45:47.825Z,4.60
2019-05-15T19:48:19.593Z,4.33
2019-05-15T19:50:48.206Z,7.42
2019-05-15T19:53:19.006Z,3.45
2019-05-15T19:55:48.533Z,5.35
2019-05-15T19:58:18.469Z,11.85
2019-05-15T20:00:51.178Z,6.22
2019-05-15T20:03:19.618Z,5.35
2019-05-15T20:05:48.950Z,2.35
2019-05-15T20:08:18.680Z,2.40
2019-05-15T20:10:48.012Z,6.08
2019-05-15T20:13:18.802Z,3.45
2019-05-15T20:15:49.182Z,2.95
2019-05-15T20:18:18.565Z,3.60
2019-05-15T20:20:48.066Z,2.52
2019-05-15T20:23:18.377Z,2.12
2019-05-15T20:25:47.972Z,5.70
2019-05-15T20:28:19.068Z,2.27
2019-05-15T20:30:48.643Z,2.70
2019-05-15T20:33:18.113Z,5.35
2019-05-15T20:35:47.969Z,4.53
2019-05-15T20:38:18.823Z,6.10
2019-05-15T20:40:48.717Z,3.08
2019-05-15T20:43:18.683Z,2.40
2019-05-15T20:48:18.468Z,3.98
2019-05-15T20:50:48.358Z,5.85
2019-05-15T20:53:18.161Z,6.25
2019-05-15T20:55:48.407Z,2.50
2019-05-15T20:58:19.482Z,4.80
2019-05-15T21:00:50.199Z,5.92
2019-05-15T21:03:19.829Z,4.20
2019-05-15T21:05:49.219Z,6.00
2019-05-15T21:08:18.503Z,5.28
2019-05-15T21:10:49.385Z,12.13
2019-05-15T21:13:18.946Z,3.62
2019-05-15T21:15:48.791Z,4.15
2019-05-15T21:18:20.155Z,7.33
2019-05-15T21:20:49.703Z,3.70
2019-05-15T21:23:19.219Z,3.58
2019-05-15T21:25:49.445Z,5.92
2019-05-15T21:28:19.659Z,8.83
2019-05-15T21:30:49.783Z,2.65
2019-05-15T21:33:19.917Z,5.50
2019-05-15T21:35:50.048Z,3.67
2019-05-15T21:38:21.390Z,6.92
2019-05-15T21:40:50.870Z,8.40
2019-05-15T21:43:20.534Z,4.83
2019-05-15T21:45:50.743Z,9.40
2019-05-15T21:48:20.936Z,8.47
2019-05-15T21:50:51.014Z,5.05
2019-05-15T21:53:21.264Z,3.72
2019-05-15T21:55:51.479Z,5.70
2019-05-15T21:58:21.756Z,6.40
2019-05-15T22:00:54.443Z,8.38
2019-05-15T22:03:28.561Z,6.85
2019-05-15T22:05:58.182Z,4.45
2019-05-15T22:08:27.932Z,9.40
2019-05-15T22:10:57.366Z,7.15
2019-05-15T22:13:31.210Z,3.83
2019-05-15T22:15:59.328Z,4.75
2019-05-15T22:18:28.861Z,6.12
2019-05-15T22:20:58.647Z,5.50
2019-05-15T22:23:28.110Z,6.62
2019-05-15T22:25:58.432Z,5.55
2019-05-15T22:28:29.036Z,6.47
2019-05-15T22:30:58.560Z,5.10
2019-05-15T22:33:28.532Z,4.42
2019-05-15T22:35:59.306Z,5.33
2019-05-15T22:38:29.098Z,6.12
2019-05-15T22:40:58.452Z,4.75
2019-05-15T22:43:28.813Z,5.10
2019-05-15T22:45:58.785Z,7.58
2019-05-15T22:48:28.687Z,6.20
2019-05-15T22:50:58.365Z,6.40
2019-05-15T22:53:28.884Z,3.62
2019-05-15T22:58:28.270Z,7.35
2019-05-15T23:00:59.789Z,8.40
2019-05-15T23:03:28.717Z,5.33
2019-05-15T23:05:58.262Z,6.08
2019-05-15T23:08:29.089Z,6.65
2019-05-15T23:13:28.709Z,10.18
2019-05-15T23:15:58.555Z,6.12
2019-05-15T23:18:27.933Z,8.00
2019-05-15T23:20:59.311Z,4.15
2019-05-15T23:23:28.656Z,6.75
2019-05-15T23:25:58.302Z,6.53
2019-05-15T23:28:28.154Z,5.45
2019-05-15T23:30:57.745Z,5.93
2019-05-15T23:33:28.241Z,6.50
2019-05-15T23:35:58.758Z,10.32
2019-05-15T23:38:28.317Z,6.57
2019-05-15T23:40:58.998Z,5.96
2019-05-15T23:43:28.418Z,5.40
2019-05-15T23:45:59.006Z,8.45
2019-05-15T23:48:29.406Z,5.08
2019-05-15T23:50:59.114Z,5.53
2019-05-15T23:53:28.990Z,6.35
2019-05-15T23:55:59.030Z,4.37
2019-05-15T23:58:29.437Z,5.30
